createdAt,value
2018-02-17T00:00:08.383Z,0.80
2018-02-17T00:10:09.998Z,0.70
2018-02-17T00:20:11.585Z,0.70
2018-02-17T00:30:13.815Z,0.70
2018-02-17T00:40:15.352Z,0.70
2018-02-17T00:50:16.937Z,0.60
2018-02-17T01:00:18.539Z,0.60
2018-02-17T01:10:20.112Z,0.60
2018-02-17T01:20:21.738Z,0.50
2018-02-17T01:30:24.058Z,0.40
2018-02-17T01:40:26.550Z,0.30
2018-02-17T01:50:32.372Z,0.30
2018-02-17T02:00:33.904Z,0.40
2018-02-17T02:10:35.391Z,0.40
2018-02-17T02:20:37.676Z,0.60
2018-02-17T02:30:39.242Z,0.50
2018-02-17T02:40:40.798Z,0.60
2018-02-17T02:50:42.350Z,0.60
2018-02-17T03:00:44.023Z,0.60
2018-02-17T03:10:45.579Z,0.70
2018-02-17T03:20:47.042Z,0.90
2018-02-17T03:30:48.644Z,1.00
2018-02-17T03:40:50.150Z,1.10
2018-02-17T03:50:51.706Z,1.00
2018-02-17T04:00:53.984Z,0.90
2018-02-17T04:10:55.493Z,0.80
2018-02-17T04:20:57.073Z,0.90
2018-02-17T04:30:58.589Z,0.80
2018-02-17T04:41:00.995Z,0.90
2018-02-17T05:12:05.421Z,1.10
2018-02-17T05:22:08.650Z,1.00
2018-02-17T05:32:10.987Z,1.00
2018-02-17T05:42:26.490Z,1.00
2018-02-17T05:52:28.211Z,1.00
2018-02-17T06:02:30.465Z,1.10
2018-02-17T06:12:32.177Z,1.00
2018-02-17T06:22:33.714Z,1.10
2018-02-17T06:32:35.276Z,1.10
2018-02-17T06:42:37.010Z,1.10
2018-02-17T06:52:38.598Z,1.10
2018-02-17T07:02:40.085Z,1.20
2018-02-17T07:12:41.644Z,1.20
2018-02-17T07:22:45.346Z,1.30
2018-02-17T07:32:47.078Z,1.30
2018-02-17T07:42:49.488Z,1.50
2018-02-17T07:52:51.053Z,1.50
2018-02-17T08:02:52.738Z,1.60
2018-02-17T08:12:54.247Z,1.70
2018-02-17T08:22:55.792Z,1.70
2018-02-17T08:32:58.061Z,1.80
2018-02-17T08:42:59.690Z,1.70
2018-02-17T08:53:01.289Z,1.80
2018-02-17T09:03:02.830Z,1.90
2018-02-17T09:13:05.082Z,2.10
2018-02-17T09:23:06.959Z,2.00
2018-02-17T09:33:08.504Z,2.20
2018-02-17T09:43:10.294Z,2.40
2018-02-17T09:53:11.806Z,2.50
2018-02-17T10:03:13.312Z,2.60
2018-02-17T10:13:15.048Z,2.70
2018-02-17T10:23:17.396Z,3.10
2018-02-17T10:33:18.980Z,3.00
2018-02-17T10:43:20.554Z,3.20
2018-02-17T10:53:22.107Z,3.20
2018-02-17T11:03:23.585Z,3.50
2018-02-17T11:13:25.225Z,3.70
2018-02-17T11:23:26.768Z,3.80
2018-02-17T11:33:29.057Z,3.90
2018-02-17T11:43:30.661Z,3.80
2018-02-17T11:53:32.266Z,3.80
2018-02-17T12:03:33.955Z,3.70
2018-02-17T12:13:35.513Z,3.70
2018-02-17T12:23:37.074Z,3.90
2018-02-17T12:33:38.685Z,4.00
2018-02-17T12:43:41.084Z,4.30
2018-02-17T12:53:42.678Z,4.30
2018-02-17T13:03:44.322Z,4.20
2018-02-17T13:13:46.678Z,4.40
2018-02-17T13:23:49.003Z,4.60
2018-02-17T13:33:50.549Z,4.50
2018-02-17T13:43:52.264Z,4.90
2018-02-17T13:53:54.629Z,5.00
2018-02-17T14:03:56.186Z,4.90
2018-02-17T14:13:57.732Z,4.80
2018-02-17T14:23:59.359Z,5.00
2018-02-17T14:34:00.854Z,5.00
2018-02-17T14:44:02.462Z,5.20
2018-02-17T14:54:04.099Z,5.20
2018-02-17T15:04:05.642Z,5.10
2018-02-17T15:14:07.184Z,5.20
2018-02-17T15:24:09.586Z,5.20
2018-02-17T15:34:11.117Z,5.10
2018-02-17T15:44:12.611Z,5.10
2018-02-17T15:54:14.224Z,5.00
2018-02-17T16:04:16.423Z,4.80
2018-02-17T16:14:17.996Z,4.60
2018-02-17T16:24:19.527Z,4.40
2018-02-17T16:34:21.069Z,4.20
2018-02-17T16:44:22.800Z,4.10
2018-02-17T16:54:24.528Z,4.00
2018-02-17T17:04:26.135Z,3.90
2018-02-17T17:14:28.074Z,3.80
2018-02-17T17:24:29.624Z,3.70
2018-02-17T17:34:31.919Z,3.60
2018-02-17T17:44:33.495Z,3.50
2018-02-17T17:54:35.122Z,3.50
2018-02-17T18:04:36.771Z,3.30
2018-02-17T18:14:38.305Z,3.10
2018-02-17T18:24:39.896Z,3.00
2018-02-17T18:34:41.462Z,2.90
2018-02-17T18:44:50.936Z,2.70
2018-02-17T18:54:53.220Z,2.50
2018-02-17T19:04:54.786Z,2.40
2018-02-17T19:14:56.426Z,2.00
2018-02-17T19:24:58.004Z,2.00
2018-02-17T19:34:59.565Z,2.00
2018-02-17T19:45:01.217Z,1.90
2018-02-17T19:55:02.817Z,1.70
2018-02-17T20:05:04.429Z,1.90
2018-02-17T20:15:06.049Z,1.90
2018-02-17T20:25:07.573Z,1.70
2018-02-17T20:35:09.160Z,1.50
2018-02-17T20:45:11.430Z,1.20
2018-02-17T20:55:13.182Z,1.10
2018-02-17T21:05:14.863Z,1.00
2018-02-17T21:15:16.461Z,0.90
2018-02-17T21:25:18.152Z,0.70
2018-02-17T21:35:19.738Z,0.60
2018-02-17T21:45:21.279Z,0.60
2018-02-17T21:55:22.874Z,0.40
2018-02-17T22:05:24.471Z,0.30
2018-02-17T22:15:26.086Z,0.40
2018-02-17T22:25:27.730Z,0.40
2018-02-17T22:35:29.284Z,0.30
2018-02-17T22:45:30.823Z,0.10
2018-02-17T22:55:32.361Z,0.00
2018-02-17T23:05:33.979Z,-0.10
2018-02-17T23:15:35.523Z,0.10
2018-02-17T23:25:37.057Z,0.10
2018-02-17T23:35:39.376Z,-0.20
2018-02-17T23:45:41.017Z,-0.30
2018-02-17T23:55:43.365Z,-0.10
